createdAt,value
2022-11-24T00:00:52.356Z,39.60
2022-11-24T00:01:56.826Z,39.50
2022-11-24T00:03:00.504Z,39.60
2022-11-24T00:04:05.777Z,39.60
2022-11-24T00:05:08.325Z,39.60
2022-11-24T00:06:16.176Z,39.60
2022-11-24T00:07:19.687Z,39.60
2022-11-24T00:08:25.351Z,39.60
2022-11-24T00:09:30.761Z,39.60
2022-11-24T00:10:35.613Z,39.60
2022-11-24T00:11:38.605Z,39.60
2022-11-24T00:12:41.009Z,39.60
2022-11-24T00:13:44.246Z,39.60
2022-11-24T00:14:47.096Z,39.70
2022-11-24T00:15:52.766Z,39.60
2022-11-24T00:16:55.525Z,39.70
2022-11-24T00:18:00.316Z,39.60
2022-11-24T00:19:05.326Z,39.60
2022-11-24T00:20:08.460Z,39.60
2022-11-24T00:21:11.450Z,39.70
2022-11-24T00:22:13.885Z,39.70
2022-11-24T00:23:17.250Z,39.70
2022-11-24T00:24:20.160Z,39.70
2022-11-24T00:25:22.686Z,39.70
2022-11-24T00:26:28.520Z,39.70
2022-11-24T00:27:30.949Z,39.70
2022-11-24T00:28:34.745Z,39.70
2022-11-24T00:29:39.622Z,39.70
2022-11-24T00:30:47.245Z,39.70
2022-11-24T00:31:49.801Z,39.70
2022-11-24T00:32:53.033Z,39.70
2022-11-24T00:33:59.061Z,39.70
2022-11-24T00:35:04.045Z,39.70
2022-11-24T00:36:12.102Z,39.80
2022-11-24T00:37:20.292Z,39.70
2022-11-24T00:38:22.871Z,39.70
2022-11-24T00:39:25.378Z,39.70
2022-11-24T00:40:33.619Z,39.80
2022-11-24T00:41:40.871Z,39.70
2022-11-24T00:42:43.262Z,39.70
2022-11-24T00:43:45.614Z,39.70
2022-11-24T00:44:48.968Z,39.80
2022-11-24T00:45:51.524Z,39.80
2022-11-24T00:46:58.115Z,39.80
2022-11-24T00:48:03.604Z,39.80
2022-11-24T00:49:09.101Z,39.80
2022-11-24T00:50:11.621Z,40.40
2022-11-24T00:51:16.457Z,39.90
2022-11-24T00:52:18.819Z,39.80
2022-11-24T00:53:25.348Z,39.80
2022-11-24T00:54:27.786Z,39.80
2022-11-24T00:55:30.175Z,39.80
2022-11-24T00:56:36.012Z,39.80
2022-11-24T00:57:38.509Z,39.80
2022-11-24T00:58:43.775Z,39.80
2022-11-24T00:59:46.243Z,39.80
2022-11-24T01:00:49.652Z,39.90
2022-11-24T01:01:56.651Z,39.90
2022-11-24T01:03:04.042Z,39.90
2022-11-24T01:04:06.548Z,39.90
2022-11-24T01:05:09.822Z,39.80
2022-11-24T01:06:15.346Z,39.90
2022-11-24T01:07:33.809Z,39.90
2022-11-24T01:08:38.789Z,39.90
2022-11-24T01:09:45.854Z,39.90
2022-11-24T01:10:50.867Z,39.90
2022-11-24T01:12:02.640Z,39.90
2022-11-24T01:13:05.655Z,39.90
2022-11-24T01:14:10.843Z,39.90
2022-11-24T01:15:13.928Z,39.90
2022-11-24T01:16:23.679Z,40.00
2022-11-24T01:17:28.365Z,39.90
2022-11-24T01:18:35.827Z,39.90
2022-11-24T01:19:38.260Z,39.90
2022-11-24T01:20:40.710Z,40.00
2022-11-24T01:21:44.731Z,40.00
2022-11-24T01:22:49.139Z,39.90
2022-11-24T01:23:51.761Z,39.90
2022-11-24T01:24:54.642Z,40.00
2022-11-24T01:26:00.083Z,40.00
2022-11-24T01:27:02.632Z,40.00
2022-11-24T01:28:05.507Z,40.00
2022-11-24T01:29:07.941Z,40.00
2022-11-24T01:30:11.638Z,40.00
2022-11-24T01:31:14.617Z,40.00
2022-11-24T01:32:17.076Z,40.00
2022-11-24T01:33:19.553Z,40.00
2022-11-24T01:34:22.078Z,40.00
2022-11-24T01:35:26.918Z,40.00
2022-11-24T01:36:31.627Z,40.00
2022-11-24T01:37:40.460Z,40.00
2022-11-24T01:38:46.450Z,40.00
2022-11-24T01:39:48.888Z,40.10
2022-11-24T01:41:05.273Z,40.00
2022-11-24T01:42:08.705Z,40.00
2022-11-24T01:43:22.314Z,40.00
2022-11-24T01:44:31.239Z,40.10
2022-11-24T01:45:41.752Z,40.00
2022-11-24T01:46:53.646Z,40.00
2022-11-24T01:48:00.145Z,40.10
2022-11-24T01:49:09.173Z,40.00
2022-11-24T01:50:16.322Z,40.00
2022-11-24T01:51:25.335Z,40.00
2022-11-24T01:52:34.303Z,40.00
2022-11-24T01:53:38.253Z,40.10
2022-11-24T01:54:48.603Z,40.00
2022-11-24T01:55:52.791Z,40.00
2022-11-24T01:57:02.685Z,40.10
2022-11-24T01:58:15.676Z,40.00
2022-11-24T01:59:21.102Z,40.10
2022-11-24T02:00:26.157Z,40.00
2022-11-24T02:01:30.440Z,40.10
2022-11-24T02:02:33.307Z,40.10
2022-11-24T02:03:43.267Z,40.10
2022-11-24T02:04:48.053Z,40.00
2022-11-24T02:06:16.693Z,40.10
2022-11-24T02:07:21.743Z,40.10
2022-11-24T02:08:41.010Z,40.10
2022-11-24T02:09:48.803Z,40.10
2022-11-24T02:10:51.333Z,40.10
2022-11-24T02:11:56.379Z,40.10
2022-11-24T02:13:00.649Z,40.10
2022-11-24T02:14:05.980Z,40.10
2022-11-24T02:15:11.818Z,40.10
2022-11-24T02:16:18.017Z,40.10
2022-11-24T02:17:22.933Z,40.10
2022-11-24T02:18:25.503Z,40.20
2022-11-24T02:19:39.820Z,40.10
2022-11-24T02:20:42.282Z,40.10
2022-11-24T02:21:44.717Z,40.10
2022-11-24T02:23:08.709Z,40.20
2022-11-24T02:24:31.622Z,40.10
2022-11-24T02:25:49.308Z,40.10
2022-11-24T02:26:58.830Z,40.10
2022-11-24T02:28:10.580Z,40.10
2022-11-24T02:29:15.364Z,40.10
2022-11-24T02:30:18.968Z,40.20
2022-11-24T02:31:21.860Z,40.20
2022-11-24T02:32:29.161Z,40.80
2022-11-24T02:33:33.654Z,40.10
2022-11-24T02:34:36.380Z,40.10
2022-11-24T02:35:40.396Z,40.20
2022-11-24T02:36:42.883Z,40.20
2022-11-24T02:37:51.216Z,40.20
2022-11-24T02:38:53.732Z,40.20
2022-11-24T02:39:56.166Z,40.20
2022-11-24T02:41:01.076Z,40.20
2022-11-24T02:42:10.724Z,40.20
2022-11-24T02:43:17.010Z,40.20
2022-11-24T02:44:22.004Z,40.80
2022-11-24T02:45:25.907Z,40.20
2022-11-24T02:46:28.429Z,40.20
2022-11-24T02:47:30.858Z,40.20
2022-11-24T02:48:34.649Z,40.20
2022-11-24T02:49:40.621Z,40.20
2022-11-24T02:50:43.902Z,40.10
2022-11-24T02:51:49.115Z,40.20
2022-11-24T02:52:51.591Z,40.20
2022-11-24T02:53:56.123Z,40.20
2022-11-24T02:54:58.601Z,40.30
2022-11-24T02:56:01.118Z,40.20
2022-11-24T02:57:03.690Z,40.20
2022-11-24T02:58:08.397Z,40.20
2022-11-24T02:59:11.077Z,40.20
2022-11-24T03:00:16.661Z,40.20
2022-11-24T03:01:27.222Z,40.20
2022-11-24T03:02:29.985Z,40.20
2022-11-24T03:03:32.663Z,40.20
2022-11-24T03:04:35.284Z,40.30
2022-11-24T03:05:45.489Z,40.30
2022-11-24T03:06:50.761Z,40.30
2022-11-24T03:07:53.879Z,40.20
2022-11-24T03:08:56.443Z,40.30
2022-11-24T03:09:59.503Z,40.30
2022-11-24T03:11:06.225Z,40.30
2022-11-24T03:12:13.153Z,40.30
2022-11-24T03:13:16.724Z,40.30
2022-11-24T03:14:25.780Z,40.30
2022-11-24T03:15:28.365Z,40.30
2022-11-24T03:16:31.067Z,40.20
2022-11-24T03:17:33.587Z,40.30
2022-11-24T03:18:38.242Z,40.20
2022-11-24T03:19:40.674Z,40.30
2022-11-24T03:20:43.159Z,40.30
2022-11-24T03:21:46.994Z,40.30
2022-11-24T03:22:53.393Z,40.30
2022-11-24T03:24:11.244Z,40.20
2022-11-24T03:25:17.324Z,40.20
2022-11-24T03:26:24.992Z,40.30
2022-11-24T03:27:31.106Z,40.30
2022-11-24T03:28:33.531Z,40.30
2022-11-24T03:29:37.124Z,40.30
2022-11-24T03:30:42.431Z,40.30
2022-11-24T03:31:44.896Z,40.30
2022-11-24T03:32:53.535Z,40.30
2022-11-24T03:33:56.449Z,40.30
2022-11-24T03:35:00.204Z,40.30
2022-11-24T03:36:05.914Z,40.30
2022-11-24T03:37:08.383Z,40.30
2022-11-24T03:38:12.003Z,40.30
2022-11-24T03:39:16.869Z,40.30
2022-11-24T03:40:20.235Z,40.30
2022-11-24T03:41:22.870Z,40.30
2022-11-24T03:42:25.488Z,40.30
2022-11-24T03:43:29.549Z,40.30
2022-11-24T03:44:32.322Z,40.30
2022-11-24T03:45:50.084Z,40.30
2022-11-24T03:46:52.536Z,40.30
2022-11-24T03:47:55.008Z,40.30
2022-11-24T03:48:57.332Z,40.30
2022-11-24T03:50:00.181Z,40.30
2022-11-24T03:51:03.268Z,40.30
2022-11-24T03:52:08.252Z,40.30
2022-11-24T03:53:11.210Z,40.30
2022-11-24T03:54:16.028Z,40.30
2022-11-24T03:55:18.579Z,40.30
2022-11-24T03:56:24.848Z,40.30
2022-11-24T03:57:30.858Z,40.30
2022-11-24T03:58:38.911Z,40.30
2022-11-24T03:59:42.091Z,40.30
2022-11-24T04:00:45.923Z,40.30
2022-11-24T04:01:48.477Z,40.30
2022-11-24T04:02:52.182Z,40.30
2022-11-24T04:03:54.765Z,40.30
2022-11-24T04:04:57.195Z,40.40
2022-11-24T04:05:59.719Z,40.30
2022-11-24T04:07:02.461Z,40.40
2022-11-24T04:08:05.682Z,40.30
2022-11-24T04:09:08.861Z,40.30
2022-11-24T04:10:11.900Z,40.30
2022-11-24T04:11:34.541Z,40.40
2022-11-24T04:12:46.218Z,40.30
2022-11-24T04:13:49.358Z,40.40
2022-11-24T04:14:51.741Z,40.40
2022-11-24T04:15:54.430Z,40.40
2022-11-24T04:16:57.184Z,40.40
2022-11-24T04:17:59.960Z,40.40
2022-11-24T04:19:02.615Z,40.50
2022-11-24T04:20:05.828Z,40.40
2022-11-24T04:21:08.220Z,40.40
2022-11-24T04:22:10.664Z,40.40
2022-11-24T04:23:13.308Z,40.40
2022-11-24T04:24:18.843Z,40.30
2022-11-24T04:25:21.333Z,40.40
2022-11-24T04:26:27.813Z,40.40
2022-11-24T04:27:33.842Z,40.40
2022-11-24T04:28:37.671Z,40.40
2022-11-24T04:29:44.107Z,40.40
2022-11-24T04:30:49.963Z,40.40
2022-11-24T04:31:52.415Z,40.40
2022-11-24T04:32:57.854Z,40.40
2022-11-24T04:34:00.329Z,40.40
2022-11-24T04:35:03.421Z,40.40
2022-11-24T04:36:06.675Z,40.40
2022-11-24T04:37:09.341Z,40.40
2022-11-24T04:38:13.256Z,40.40
2022-11-24T04:39:35.914Z,40.40
2022-11-24T04:40:40.014Z,40.40
2022-11-24T04:41:47.069Z,40.40
2022-11-24T04:42:55.677Z,40.40
2022-11-24T04:43:58.062Z,40.50
2022-11-24T04:45:01.372Z,40.40
2022-11-24T04:46:05.200Z,40.40
2022-11-24T04:47:21.223Z,40.40
2022-11-24T04:48:25.344Z,40.40
2022-11-24T04:49:27.880Z,40.90
2022-11-24T04:50:32.494Z,40.40
2022-11-24T04:51:36.942Z,40.40
2022-11-24T04:52:39.778Z,40.40
2022-11-24T04:53:46.266Z,40.50
2022-11-24T04:54:49.664Z,40.40
2022-11-24T04:55:54.607Z,40.40
2022-11-24T04:56:57.023Z,40.40
2022-11-24T04:58:01.891Z,40.40
2022-11-24T04:59:08.347Z,40.40
2022-11-24T05:00:13.023Z,40.40
2022-11-24T05:01:16.918Z,40.40
2022-11-24T05:02:22.827Z,40.40
2022-11-24T05:03:25.656Z,40.40
2022-11-24T05:04:28.833Z,40.40
2022-11-24T05:05:31.580Z,40.40
2022-11-24T05:06:34.089Z,40.40
2022-11-24T05:07:37.498Z,40.40
2022-11-24T05:08:43.098Z,40.40
2022-11-24T05:10:08.263Z,40.40
2022-11-24T05:11:13.897Z,40.40
2022-11-24T05:12:18.202Z,40.40
2022-11-24T05:13:20.669Z,40.40
2022-11-24T05:14:27.886Z,41.00
2022-11-24T05:15:30.610Z,41.00
2022-11-24T05:16:35.174Z,40.40
2022-11-24T05:17:39.411Z,40.40
2022-11-24T05:18:42.830Z,40.40
2022-11-24T05:19:46.602Z,40.40
2022-11-24T05:20:51.967Z,40.40
2022-11-24T05:21:54.574Z,40.40
2022-11-24T05:23:04.925Z,40.40
2022-11-24T05:24:07.669Z,40.40
2022-11-24T05:25:13.021Z,40.40
2022-11-24T05:26:15.582Z,40.40
2022-11-24T05:27:18.233Z,40.40
2022-11-24T05:28:20.840Z,40.40
2022-11-24T05:29:23.325Z,40.40
2022-11-24T05:30:26.068Z,40.30
2022-11-24T05:31:28.581Z,40.40
2022-11-24T05:32:31.077Z,40.40
2022-11-24T05:33:34.105Z,40.40
2022-11-24T05:34:36.801Z,40.40
2022-11-24T05:35:39.405Z,40.30
2022-11-24T05:36:55.988Z,40.40
2022-11-24T05:38:00.094Z,41.00
2022-11-24T05:39:02.572Z,40.40
2022-11-24T05:40:07.893Z,41.00
2022-11-24T05:41:10.485Z,40.40
2022-11-24T05:42:40.845Z,40.40
2022-11-24T05:43:46.035Z,40.40
2022-11-24T05:44:49.010Z,40.40
2022-11-24T05:45:51.916Z,40.40
2022-11-24T05:46:54.529Z,40.40
2022-11-24T05:48:05.398Z,40.40
2022-11-24T05:49:11.106Z,40.40
2022-11-24T05:50:15.630Z,40.40
2022-11-24T05:51:20.586Z,40.40
2022-11-24T05:52:27.095Z,40.50
2022-11-24T05:53:29.578Z,40.50
2022-11-24T05:54:33.290Z,40.50
2022-11-24T05:55:38.299Z,40.50
2022-11-24T05:56:43.477Z,40.50
2022-11-24T05:57:46.382Z,40.50
2022-11-24T05:58:48.913Z,40.50
2022-11-24T06:00:01.282Z,40.50
2022-11-24T06:01:10.035Z,40.50
2022-11-24T06:02:14.229Z,40.50
2022-11-24T06:03:16.918Z,40.60
2022-11-24T06:04:19.398Z,40.60
2022-11-24T06:05:21.947Z,40.60
2022-11-24T06:06:24.429Z,40.60
2022-11-24T06:07:27.003Z,40.60
2022-11-24T06:08:31.366Z,40.60
2022-11-24T06:09:38.456Z,40.60
2022-11-24T06:10:41.014Z,40.70
2022-11-24T06:11:48.124Z,40.60
2022-11-24T06:12:51.294Z,40.60
2022-11-24T06:13:56.855Z,40.60
2022-11-24T06:14:59.820Z,40.60
2022-11-24T06:16:02.298Z,40.70
2022-11-24T06:17:05.724Z,40.70
2022-11-24T06:18:10.871Z,40.70
2022-11-24T06:19:13.487Z,40.70
2022-11-24T06:20:18.534Z,40.70
2022-11-24T06:21:21.423Z,41.30
2022-11-24T06:22:27.200Z,40.70
2022-11-24T06:23:29.857Z,40.70
2022-11-24T06:24:37.968Z,40.80
2022-11-24T06:25:40.657Z,40.80
2022-11-24T06:26:48.945Z,40.70
2022-11-24T06:27:51.501Z,40.80
2022-11-24T06:28:54.253Z,40.80
2022-11-24T06:29:56.850Z,40.80
2022-11-24T06:31:03.506Z,40.70
2022-11-24T06:32:11.569Z,40.90
2022-11-24T06:33:15.393Z,40.90
2022-11-24T06:34:18.016Z,40.80
2022-11-24T06:35:25.989Z,40.90
2022-11-24T06:36:28.644Z,40.90
2022-11-24T06:37:31.035Z,40.80
2022-11-24T06:38:35.430Z,40.90
2022-11-24T06:39:40.744Z,40.90
2022-11-24T06:40:45.459Z,41.00
2022-11-24T06:41:50.385Z,41.00
2022-11-24T06:42:52.989Z,41.00
2022-11-24T06:43:55.467Z,41.00
2022-11-24T06:45:09.107Z,41.00
2022-11-24T06:46:12.731Z,41.00
2022-11-24T06:47:19.502Z,40.90
2022-11-24T06:48:30.546Z,41.00
2022-11-24T06:49:40.745Z,41.00
2022-11-24T06:50:43.716Z,41.10
2022-11-24T06:51:48.459Z,41.10
2022-11-24T06:52:54.827Z,41.10
2022-11-24T06:53:57.870Z,41.20
2022-11-24T06:55:10.402Z,41.20
2022-11-24T06:56:16.571Z,41.10
2022-11-24T06:57:24.407Z,41.20
2022-11-24T06:58:28.421Z,41.20
2022-11-24T06:59:30.970Z,41.20
2022-11-24T07:00:38.234Z,41.20
2022-11-24T07:01:41.194Z,41.20
2022-11-24T07:02:49.463Z,41.20
2022-11-24T07:03:53.770Z,41.20
2022-11-24T07:04:56.514Z,41.80
2022-11-24T07:05:59.692Z,41.20
2022-11-24T07:07:07.003Z,41.20
2022-11-24T07:08:17.965Z,41.10
2022-11-24T07:09:21.830Z,41.20
2022-11-24T07:10:34.032Z,41.10
2022-11-24T07:11:45.540Z,41.20
2022-11-24T07:12:48.068Z,41.20
2022-11-24T07:13:59.853Z,41.10
2022-11-24T07:15:05.698Z,41.10
2022-11-24T07:16:29.131Z,41.20
2022-11-24T07:17:40.450Z,41.20
2022-11-24T07:18:47.690Z,41.20
2022-11-24T07:19:50.645Z,41.20
2022-11-24T07:20:58.231Z,41.10
2022-11-24T07:22:03.775Z,41.20
2022-11-24T07:23:06.898Z,41.20
2022-11-24T07:24:12.135Z,41.20
2022-11-24T07:25:21.247Z,41.20
2022-11-24T07:26:26.745Z,41.20
2022-11-24T07:27:30.310Z,41.20
2022-11-24T07:28:33.372Z,41.20
2022-11-24T07:29:38.546Z,41.10
2022-11-24T07:30:41.977Z,41.10
2022-11-24T07:31:45.998Z,41.10
2022-11-24T07:32:59.517Z,41.20
2022-11-24T07:34:06.027Z,41.20
2022-11-24T07:35:11.150Z,41.20
2022-11-24T07:36:16.739Z,41.20
2022-11-24T07:37:19.318Z,41.20
2022-11-24T07:38:21.883Z,41.10
2022-11-24T07:39:27.067Z,41.20
2022-11-24T07:40:32.592Z,41.20
2022-11-24T07:41:39.847Z,41.20
2022-11-24T07:42:42.356Z,41.20
2022-11-24T07:43:48.928Z,41.20
2022-11-24T07:44:55.203Z,41.80
2022-11-24T07:46:00.709Z,41.20
2022-11-24T07:47:06.304Z,41.20
2022-11-24T07:48:10.783Z,41.20
2022-11-24T07:49:13.565Z,41.20
2022-11-24T07:50:16.438Z,41.20
2022-11-24T07:51:19.038Z,41.20
2022-11-24T07:52:26.784Z,41.10
2022-11-24T07:53:29.515Z,41.20
2022-11-24T07:54:32.297Z,41.20
2022-11-24T07:55:37.476Z,41.20
2022-11-24T07:56:40.058Z,41.20
2022-11-24T07:57:48.289Z,41.20
2022-11-24T07:58:53.192Z,41.10
2022-11-24T07:59:56.299Z,41.20
2022-11-24T08:00:59.750Z,41.20
2022-11-24T08:02:02.435Z,41.20
2022-11-24T08:03:10.110Z,41.20
2022-11-24T08:04:18.135Z,41.20
2022-11-24T08:05:23.642Z,41.20
2022-11-24T08:06:39.752Z,41.10
2022-11-24T08:07:47.859Z,41.20
2022-11-24T08:08:54.828Z,41.10
2022-11-24T08:10:01.551Z,41.20
2022-11-24T08:11:17.878Z,41.10
2022-11-24T08:12:28.239Z,41.10
2022-11-24T08:13:30.697Z,41.10
2022-11-24T08:14:33.402Z,41.10
2022-11-24T08:15:37.274Z,41.10
2022-11-24T08:16:39.936Z,41.10
2022-11-24T08:17:46.856Z,41.10
2022-11-24T08:18:54.553Z,41.10
2022-11-24T08:19:57.343Z,41.10
2022-11-24T08:21:00.971Z,41.10
2022-11-24T08:22:03.887Z,41.00
2022-11-24T08:23:11.979Z,41.10
2022-11-24T08:24:20.162Z,41.10
2022-11-24T08:25:32.191Z,41.10
2022-11-24T08:26:35.906Z,41.00
2022-11-24T08:27:40.139Z,41.00
2022-11-24T08:28:44.707Z,41.00
2022-11-24T08:29:50.202Z,41.00
2022-11-24T08:31:04.647Z,41.00
2022-11-24T08:32:10.669Z,40.90
2022-11-24T08:33:13.226Z,41.00
2022-11-24T08:34:16.987Z,41.00
2022-11-24T08:35:23.787Z,41.00
2022-11-24T08:36:37.676Z,41.00
2022-11-24T08:37:51.986Z,41.00
2022-11-24T08:39:02.288Z,41.00
2022-11-24T08:40:05.225Z,41.00
2022-11-24T08:41:12.650Z,41.00
2022-11-24T08:42:26.489Z,41.00
2022-11-24T08:43:32.806Z,41.00
2022-11-24T08:44:36.857Z,40.90
2022-11-24T08:45:42.538Z,41.00
2022-11-24T08:46:45.562Z,41.00
2022-11-24T08:47:52.857Z,41.00
2022-11-24T08:49:01.849Z,41.00
2022-11-24T08:50:05.720Z,41.00
2022-11-24T08:51:13.703Z,40.90
2022-11-24T08:52:19.364Z,41.00
2022-11-24T08:53:21.976Z,40.90
2022-11-24T08:54:29.605Z,40.90
2022-11-24T08:55:32.131Z,40.90
2022-11-24T08:56:37.605Z,41.00
2022-11-24T08:57:47.848Z,40.90
2022-11-24T08:58:54.955Z,40.90
2022-11-24T09:01:22.707Z,41.00
2022-11-24T09:02:26.496Z,41.00
2022-11-24T09:03:32.510Z,40.90
2022-11-24T09:04:35.459Z,41.00
2022-11-24T09:05:51.827Z,40.90
2022-11-24T09:06:57.815Z,41.00
2022-11-24T09:08:00.442Z,40.90
2022-11-24T09:09:07.397Z,40.90
2022-11-24T09:10:15.311Z,40.90
2022-11-24T09:11:18.524Z,40.90
2022-11-24T09:12:23.882Z,40.90
2022-11-24T09:13:26.488Z,40.90
2022-11-24T09:14:29.058Z,40.90
2022-11-24T09:15:33.722Z,40.90
2022-11-24T09:16:37.928Z,40.90
2022-11-24T09:17:40.999Z,40.90
2022-11-24T09:18:49.454Z,41.00
2022-11-24T09:19:53.019Z,40.90
2022-11-24T09:21:11.186Z,41.00
2022-11-24T09:22:13.623Z,40.90
2022-11-24T09:23:21.873Z,41.00
2022-11-24T09:24:26.885Z,40.90
2022-11-24T09:25:33.176Z,40.90
2022-11-24T09:26:43.276Z,40.90
2022-11-24T09:27:49.557Z,40.90
2022-11-24T09:28:55.148Z,41.00
2022-11-24T09:29:57.796Z,40.90
2022-11-24T09:31:05.154Z,40.90
2022-11-24T09:32:12.058Z,40.90
2022-11-24T09:33:15.327Z,41.00
2022-11-24T09:34:18.191Z,40.90
2022-11-24T09:35:28.743Z,41.00
2022-11-24T09:36:32.147Z,40.90
2022-11-24T09:37:41.171Z,41.00
2022-11-24T09:38:43.741Z,40.90
2022-11-24T09:39:46.300Z,41.00
2022-11-24T09:40:50.529Z,41.00
2022-11-24T09:42:15.077Z,41.00
2022-11-24T09:43:42.847Z,40.90
2022-11-24T09:45:00.700Z,41.00
2022-11-24T09:46:23.058Z,41.00
2022-11-24T09:47:42.049Z,40.90
2022-11-24T09:48:49.412Z,41.00
2022-11-24T09:50:04.408Z,41.00
2022-11-24T09:51:14.177Z,41.00
2022-11-24T09:52:22.504Z,41.50
2022-11-24T09:53:54.075Z,41.00
2022-11-24T09:55:03.131Z,41.00
2022-11-24T09:56:24.863Z,41.00
2022-11-24T09:57:35.851Z,41.10
2022-11-24T09:59:02.975Z,40.90
2022-11-24T10:00:12.789Z,41.00
2022-11-24T10:01:27.940Z,40.90
2022-11-24T10:02:33.517Z,41.00
2022-11-24T10:03:43.383Z,41.00
2022-11-24T10:04:52.523Z,41.00
2022-11-24T10:06:01.815Z,41.00
2022-11-24T10:07:25.024Z,41.00
2022-11-24T10:08:33.311Z,41.10
2022-11-24T10:09:35.842Z,41.00
2022-11-24T10:11:01.967Z,41.60
2022-11-24T10:12:23.912Z,41.00
2022-11-24T10:13:41.115Z,41.10
2022-11-24T10:15:22.780Z,41.10
2022-11-24T10:16:53.662Z,41.10
2022-11-24T10:18:19.647Z,41.10
2022-11-24T10:19:37.086Z,41.10
2022-11-24T10:21:18.381Z,41.00
2022-11-24T10:23:01.589Z,41.10
2022-11-24T10:24:06.677Z,41.20
2022-11-24T10:25:30.134Z,41.10
2022-11-24T10:26:45.799Z,41.10
2022-11-24T10:28:00.117Z,41.10
2022-11-24T10:29:21.427Z,41.20
2022-11-24T10:30:26.394Z,41.20
2022-11-24T10:31:36.058Z,41.10
2022-11-24T10:32:47.127Z,41.10
2022-11-24T10:34:00.611Z,41.20
2022-11-24T10:35:19.077Z,41.10
2022-11-24T10:36:54.982Z,41.10
2022-11-24T10:38:08.120Z,41.20
2022-11-24T10:39:18.245Z,41.20
2022-11-24T10:41:00.251Z,41.10
2022-11-24T10:42:21.039Z,41.20
2022-11-24T10:43:28.273Z,41.20
2022-11-24T10:44:30.904Z,41.20
2022-11-24T10:45:39.466Z,41.20
2022-11-24T10:46:43.837Z,41.20
2022-11-24T10:47:49.339Z,41.20
2022-11-24T10:49:07.763Z,41.20
2022-11-24T10:50:23.961Z,41.20
2022-11-24T10:51:52.833Z,41.20
2022-11-24T10:53:16.233Z,41.20
2022-11-24T10:54:25.085Z,41.20
2022-11-24T10:55:46.753Z,41.20
2022-11-24T10:56:54.345Z,41.20
2022-11-24T10:58:15.902Z,41.10
2022-11-24T10:59:20.878Z,41.20
2022-11-24T11:00:26.593Z,41.20
2022-11-24T11:01:33.438Z,41.20
2022-11-24T11:02:38.770Z,41.20
2022-11-24T11:03:51.751Z,41.10
2022-11-24T11:04:55.989Z,41.30
2022-11-24T11:06:15.384Z,41.10
2022-11-24T11:07:22.505Z,41.20
2022-11-24T11:08:28.888Z,41.20
2022-11-24T11:09:36.797Z,41.20
2022-11-24T11:10:44.785Z,41.20
2022-11-24T11:11:56.945Z,41.30
2022-11-24T11:13:29.188Z,41.30
2022-11-24T11:14:35.701Z,41.30
2022-11-24T11:15:39.357Z,41.30
2022-11-24T11:16:46.880Z,41.20
2022-11-24T11:17:59.879Z,41.30
2022-11-24T11:19:20.238Z,41.30
2022-11-24T11:20:33.871Z,41.30
2022-11-24T11:21:38.990Z,41.30
2022-11-24T11:22:48.371Z,41.30
2022-11-24T11:23:51.902Z,41.30
2022-11-24T11:25:21.404Z,41.30
2022-11-24T11:26:31.047Z,41.30
2022-11-24T11:27:33.711Z,41.30
2022-11-24T11:28:37.515Z,41.40
2022-11-24T11:31:16.695Z,41.40
2022-11-24T11:34:03.601Z,41.40
2022-11-24T11:35:16.236Z,41.40
2022-11-24T11:36:21.411Z,41.40
2022-11-24T11:37:31.081Z,41.40
2022-11-24T11:38:40.736Z,41.40
2022-11-24T11:39:48.832Z,41.40
2022-11-24T11:40:55.886Z,41.40
2022-11-24T11:42:53.851Z,41.40
2022-11-24T11:43:49.528Z,41.50
2022-11-24T11:45:16.873Z,41.40
2022-11-24T11:46:20.760Z,41.50
2022-11-24T11:47:44.044Z,41.50
2022-11-24T11:48:48.003Z,41.50
2022-11-24T11:49:53.290Z,41.50
2022-11-24T11:51:23.337Z,41.50
2022-11-24T11:53:02.784Z,41.50
2022-11-24T11:54:32.979Z,41.60
2022-11-24T11:56:09.018Z,41.60
2022-11-24T11:57:38.145Z,41.60
2022-11-24T11:59:06.307Z,41.60
2022-11-24T12:00:17.485Z,41.60
2022-11-24T12:01:35.252Z,41.60
2022-11-24T12:02:55.793Z,41.60
2022-11-24T12:04:14.437Z,41.60
2022-11-24T12:05:34.808Z,41.60
2022-11-24T12:07:01.666Z,41.60
2022-11-24T12:09:18.010Z,41.70
2022-11-24T12:10:27.879Z,41.60
2022-11-24T12:11:42.989Z,41.70
2022-11-24T12:13:08.890Z,41.70
2022-11-24T12:14:20.016Z,41.70
2022-11-24T12:15:31.390Z,41.70
2022-11-24T12:16:48.300Z,41.80
2022-11-24T12:18:49.009Z,41.80
2022-11-24T12:20:21.553Z,41.70
2022-11-24T12:21:26.694Z,41.70
2022-11-24T12:22:40.720Z,41.80
2022-11-24T12:24:30.478Z,41.70
2022-11-24T12:25:41.240Z,41.80
2022-11-24T12:26:49.440Z,41.80
2022-11-24T12:28:20.935Z,41.80
2022-11-24T12:29:38.351Z,41.80
2022-11-24T12:31:15.463Z,41.90
2022-11-24T12:32:44.454Z,41.90
2022-11-24T12:34:32.086Z,41.90
2022-11-24T12:35:44.821Z,41.80
2022-11-24T12:36:54.781Z,41.90
2022-11-24T12:38:04.554Z,41.80
2022-11-24T12:39:18.203Z,41.90
2022-11-24T12:40:42.147Z,41.90
2022-11-24T12:41:52.118Z,41.90
2022-11-24T12:43:32.061Z,42.00
2022-11-24T12:45:13.232Z,41.90
2022-11-24T12:46:33.753Z,41.90
2022-11-24T12:47:58.171Z,42.00
2022-11-24T12:49:32.068Z,42.20
2022-11-24T12:50:41.411Z,42.10
2022-11-24T12:51:50.407Z,42.20
2022-11-24T12:53:05.040Z,42.10
2022-11-24T12:54:19.645Z,42.10
2022-11-24T12:55:23.534Z,42.10
2022-11-24T12:56:44.687Z,42.10
2022-11-24T12:58:00.318Z,42.10
2022-11-24T12:59:21.922Z,42.20
2022-11-24T13:00:34.300Z,42.20
2022-11-24T13:02:01.793Z,42.20
2022-11-24T13:03:24.365Z,42.20
2022-11-24T13:04:45.895Z,42.20
2022-11-24T13:06:11.503Z,42.20
2022-11-24T13:07:34.941Z,42.20
2022-11-24T13:08:38.347Z,42.20
2022-11-24T13:10:26.345Z,42.20
2022-11-24T13:12:14.527Z,42.20
2022-11-24T13:13:28.498Z,42.20
2022-11-24T13:14:40.191Z,42.20
2022-11-24T13:16:34.543Z,42.20
2022-11-24T13:17:43.483Z,42.20
2022-11-24T13:19:00.261Z,42.20
2022-11-24T13:20:26.187Z,42.20
2022-11-24T13:21:45.582Z,42.20
2022-11-24T13:24:28.268Z,42.30
2022-11-24T13:25:35.337Z,42.30
2022-11-24T13:26:48.524Z,42.30
2022-11-24T13:27:57.590Z,42.30
2022-11-24T13:29:23.762Z,42.30
2022-11-24T13:30:37.957Z,42.30
2022-11-24T13:31:41.330Z,42.30
2022-11-24T13:32:44.135Z,42.30
2022-11-24T13:33:52.885Z,42.30
2022-11-24T13:35:03.629Z,42.30
2022-11-24T13:36:26.198Z,42.30
2022-11-24T13:37:34.948Z,42.30
2022-11-24T13:38:51.313Z,42.30
2022-11-24T13:39:58.920Z,42.40
2022-11-24T13:41:27.673Z,42.30
2022-11-24T13:42:43.114Z,43.00
2022-11-24T13:44:16.366Z,42.30
2022-11-24T13:45:43.079Z,42.90
2022-11-24T13:47:06.582Z,42.40
2022-11-24T13:48:24.605Z,42.90
2022-11-24T13:49:44.277Z,42.40
2022-11-24T13:50:57.872Z,42.40
2022-11-24T13:52:36.307Z,42.40
2022-11-24T13:53:45.598Z,42.40
2022-11-24T13:54:48.730Z,42.30
2022-11-24T13:56:00.386Z,42.30
2022-11-24T13:57:36.462Z,42.30
2022-11-24T13:58:42.425Z,42.30
2022-11-24T13:59:51.383Z,42.30
2022-11-24T14:01:13.403Z,42.30
2022-11-24T14:02:24.747Z,42.30
2022-11-24T14:03:33.023Z,42.30
2022-11-24T14:04:39.561Z,42.30
2022-11-24T14:05:49.030Z,42.30
2022-11-24T14:07:00.105Z,42.30
2022-11-24T14:08:08.216Z,42.30
2022-11-24T14:09:21.372Z,42.30
2022-11-24T14:10:35.120Z,42.30
2022-11-24T14:11:38.392Z,42.20
2022-11-24T14:12:47.292Z,42.30
2022-11-24T14:13:53.363Z,42.30
2022-11-24T14:15:35.401Z,42.20
2022-11-24T14:16:41.339Z,42.20
2022-11-24T14:17:48.064Z,42.30
2022-11-24T14:18:52.139Z,42.20
2022-11-24T14:19:56.858Z,42.20
2022-11-24T14:21:22.099Z,42.30
2022-11-24T14:22:31.820Z,42.20
2022-11-24T14:23:48.898Z,42.20
2022-11-24T14:25:01.632Z,42.20
2022-11-24T14:26:07.577Z,42.20
2022-11-24T14:27:16.954Z,42.20
2022-11-24T14:28:30.514Z,42.20
2022-11-24T14:29:35.403Z,42.20
2022-11-24T14:30:37.983Z,42.20
2022-11-24T14:31:41.321Z,42.10
2022-11-24T14:33:02.411Z,42.20
2022-11-24T14:34:18.120Z,42.10
2022-11-24T14:35:40.570Z,42.10
2022-11-24T14:36:47.254Z,42.10
2022-11-24T14:37:53.398Z,42.10
2022-11-24T14:39:01.419Z,42.00
2022-11-24T14:40:06.281Z,42.10
2022-11-24T14:41:34.728Z,42.10
2022-11-24T14:42:37.934Z,42.00
2022-11-24T14:43:40.915Z,42.00
2022-11-24T14:44:51.750Z,42.00
2022-11-24T14:45:59.053Z,42.60
2022-11-24T14:47:21.255Z,42.00
2022-11-24T14:48:33.962Z,42.00
2022-11-24T14:49:42.666Z,42.00
2022-11-24T14:50:53.003Z,41.90
2022-11-24T14:52:19.116Z,42.00
2022-11-24T14:55:03.957Z,41.90
2022-11-24T14:56:30.339Z,41.90